sensor_id;sensor_type;location;lat;lon;timestamp;temperature;humidity
66722;SHT31;53633;49.932;10.884;2022-11-20T00:01:09;-0.45;88.99
66722;SHT31;53633;49.932;10.884;2022-11-20T00:03:36;-0.38;89.01
66722;SHT31;53633;49.932;10.884;2022-11-20T00:06:04;-0.36;88.91
66722;SHT31;53633;49.932;10.884;2022-11-20T00:08:32;-0.20;88.19
66722;SHT31;53633;49.932;10.884;2022-11-20T00:11:04;-0.21;88.29
66722;SHT31;53633;49.932;10.884;2022-11-20T00:13:30;-0.14;88.34
66722;SHT31;53633;49.932;10.884;2022-11-20T00:15:58;-0.07;88.31
66722;SHT31;53633;49.932;10.884;2022-11-20T00:18:24;-0.06;87.87
66722;SHT31;53633;49.932;10.884;2022-11-20T00:20:51;-0.11;88.28
66722;SHT31;53633;49.932;10.884;2022-11-20T00:23:18;-0.03;87.33
66722;SHT31;53633;49.932;10.884;2022-11-20T00:25:45;-0.17;88.10
66722;SHT31;53633;49.932;10.884;2022-11-20T00:28:13;-0.24;87.96
66722;SHT31;53633;49.932;10.884;2022-11-20T00:30:40;-0.30;88.00
66722;SHT31;53633;49.932;10.884;2022-11-20T00:33:07;-0.40;88.22
66722;SHT31;53633;49.932;10.884;2022-11-20T00:35:33;-0.47;88.21
66722;SHT31;53633;49.932;10.884;2022-11-20T00:38:00;-0.57;88.81
66722;SHT31;53633;49.932;10.884;2022-11-20T00:40:27;-0.68;89.01
66722;SHT31;53633;49.932;10.884;2022-11-20T00:42:53;-0.74;89.22
66722;SHT31;53633;49.932;10.884;2022-11-20T00:45:21;-0.65;88.81
66722;SHT31;53633;49.932;10.884;2022-11-20T00:47:48;-0.69;88.77
66722;SHT31;53633;49.932;10.884;2022-11-20T00:50:15;-0.76;88.95
66722;SHT31;53633;49.932;10.884;2022-11-20T00:52:41;-0.81;89.35
66722;SHT31;53633;49.932;10.884;2022-11-20T00:55:08;-0.88;89.86
66722;SHT31;53633;49.932;10.884;2022-11-20T00:57:35;-0.82;89.51
66722;SHT31;53633;49.932;10.884;2022-11-20T01:00:02;-0.81;89.64
66722;SHT31;53633;49.932;10.884;2022-11-20T01:02:30;-0.65;89.24
66722;SHT31;53633;49.932;10.884;2022-11-20T01:04:57;-0.51;88.99
66722;SHT31;53633;49.932;10.884;2022-11-20T01:07:24;-0.41;88.12
66722;SHT31;53633;49.932;10.884;2022-11-20T01:09:50;-0.31;87.66
66722;SHT31;53633;49.932;10.884;2022-11-20T01:12:17;-0.31;87.26
66722;SHT31;53633;49.932;10.884;2022-11-20T01:14:44;-0.27;87.56
66722;SHT31;53633;49.932;10.884;2022-11-20T01:17:10;-0.30;87.45
66722;SHT31;53633;49.932;10.884;2022-11-20T01:19:38;-0.31;87.57
66722;SHT31;53633;49.932;10.884;2022-11-20T01:22:05;-0.26;87.76
66722;SHT31;53633;49.932;10.884;2022-11-20T01:24:32;-0.20;87.39
66722;SHT31;53633;49.932;10.884;2022-11-20T01:26:59;-0.34;87.44
66722;SHT31;53633;49.932;10.884;2022-11-20T01:29:25;-0.34;87.53
66722;SHT31;53633;49.932;10.884;2022-11-20T01:31:52;-0.27;87.37
66722;SHT31;53633;49.932;10.884;2022-11-20T01:34:20;-0.34;87.51
66722;SHT31;53633;49.932;10.884;2022-11-20T01:36:49;-0.37;87.96
66722;SHT31;53633;49.932;10.884;2022-11-20T01:39:18;-0.27;87.92
66722;SHT31;53633;49.932;10.884;2022-11-20T01:41:46;-0.31;87.17
66722;SHT31;53633;49.932;10.884;2022-11-20T01:44:15;-0.34;87.29
66722;SHT31;53633;49.932;10.884;2022-11-20T01:46:56;-0.38;87.48
66722;SHT31;53633;49.932;10.884;2022-11-20T01:49:27;-0.34;87.89
66722;SHT31;53633;49.932;10.884;2022-11-20T01:52:00;-0.31;87.60
66722;SHT31;53633;49.932;10.884;2022-11-20T01:54:32;-0.36;88.19
66722;SHT31;53633;49.932;10.884;2022-11-20T01:57:02;-0.33;88.75
66722;SHT31;53633;49.932;10.884;2022-11-20T01:59:30;-0.30;88.40
66722;SHT31;53633;49.932;10.884;2022-11-20T02:01:57;-0.38;89.05
66722;SHT31;53633;49.932;10.884;2022-11-20T02:04:24;-0.27;88.18
66722;SHT31;53633;49.932;10.884;2022-11-20T02:06:57;-0.30;88.70
66722;SHT31;53633;49.932;10.884;2022-11-20T02:09:25;-0.30;88.34
66722;SHT31;53633;49.932;10.884;2022-11-20T02:11:53;-0.23;88.15
66722;SHT31;53633;49.932;10.884;2022-11-20T02:14:21;-0.27;88.13
66722;SHT31;53633;49.932;10.884;2022-11-20T02:16:48;-0.27;88.07
66722;SHT31;53633;49.932;10.884;2022-11-20T02:19:22;-0.31;88.33
66722;SHT31;53633;49.932;10.884;2022-11-20T02:21:58;-0.34;88.32
66722;SHT31;53633;49.932;10.884;2022-11-20T02:24:27;-0.23;88.22
66722;SHT31;53633;49.932;10.884;2022-11-20T02:26:58;-0.24;87.73
66722;SHT31;53633;49.932;10.884;2022-11-20T02:29:27;-0.28;87.96
66722;SHT31;53633;49.932;10.884;2022-11-20T02:31:58;-0.27;88.02
66722;SHT31;53633;49.932;10.884;2022-11-20T02:34:26;-0.24;87.73
66722;SHT31;53633;49.932;10.884;2022-11-20T02:36:53;-0.23;87.86
66722;SHT31;53633;49.932;10.884;2022-11-20T02:39:20;-0.10;87.66
66722;SHT31;53633;49.932;10.884;2022-11-20T02:41:52;-0.16;86.67
66722;SHT31;53633;49.932;10.884;2022-11-20T02:44:19;-0.19;86.79
66722;SHT31;53633;49.932;10.884;2022-11-20T02:46:46;-0.20;87.01
66722;SHT31;53633;49.932;10.884;2022-11-20T02:49:12;-0.24;87.21
66722;SHT31;53633;49.932;10.884;2022-11-20T02:51:39;-0.31;87.07
66722;SHT31;53633;49.932;10.884;2022-11-20T02:54:06;-0.27;87.20
66722;SHT31;53633;49.932;10.884;2022-11-20T02:56:32;-0.36;87.43
66722;SHT31;53633;49.932;10.884;2022-11-20T02:59:00;-0.31;87.40
66722;SHT31;53633;49.932;10.884;2022-11-20T03:01:27;-0.33;87.48
66722;SHT31;53633;49.932;10.884;2022-11-20T03:03:54;-0.34;87.63
66722;SHT31;53633;49.932;10.884;2022-11-20T03:06:20;-0.34;87.89
66722;SHT31;53633;49.932;10.884;2022-11-20T03:08:47;-0.41;88.45
66722;SHT31;53633;49.932;10.884;2022-11-20T03:11:14;-0.37;88.38
66722;SHT31;53633;49.932;10.884;2022-11-20T03:13:40;-0.33;88.13
66722;SHT31;53633;49.932;10.884;2022-11-20T03:16:11;-0.33;88.43
66722;SHT31;53633;49.932;10.884;2022-11-20T03:18:39;-0.30;88.26
66722;SHT31;53633;49.932;10.884;2022-11-20T03:21:06;-0.23;87.95
66722;SHT31;53633;49.932;10.884;2022-11-20T03:23:33;-0.19;87.58
66722;SHT31;53633;49.932;10.884;2022-11-20T03:26:10;-0.19;86.92
66722;SHT31;53633;49.932;10.884;2022-11-20T03:28:37;-0.28;87.15
66722;SHT31;53633;49.932;10.884;2022-11-20T03:31:07;-0.31;87.78
66722;SHT31;53633;49.932;10.884;2022-11-20T03:33:35;-0.36;88.01
66722;SHT31;53633;49.932;10.884;2022-11-20T03:36:02;-0.28;87.93
66722;SHT31;53633;49.932;10.884;2022-11-20T03:38:30;-0.31;87.80
66722;SHT31;53633;49.932;10.884;2022-11-20T03:41:02;-0.37;88.04
66722;SHT31;53633;49.932;10.884;2022-11-20T03:43:30;-0.28;87.70
66722;SHT31;53633;49.932;10.884;2022-11-20T03:45:57;-0.28;87.84
66722;SHT31;53633;49.932;10.884;2022-11-20T03:48:24;-0.34;88.19
66722;SHT31;53633;49.932;10.884;2022-11-20T03:50:52;-0.26;88.03
66722;SHT31;53633;49.932;10.884;2022-11-20T03:53:20;-0.27;87.89
66722;SHT31;53633;49.932;10.884;2022-11-20T03:55:50;-0.30;87.95
66722;SHT31;53633;49.932;10.884;2022-11-20T03:58:17;-0.38;88.60
66722;SHT31;53633;49.932;10.884;2022-11-20T04:00:44;-0.36;88.17
66722;SHT31;53633;49.932;10.884;2022-11-20T04:03:10;-0.37;88.79
66722;SHT31;53633;49.932;10.884;2022-11-20T04:05:37;-0.41;88.95
66722;SHT31;53633;49.932;10.884;2022-11-20T04:08:05;-0.36;88.98
66722;SHT31;53633;49.932;10.884;2022-11-20T04:10:32;-0.28;88.72
66722;SHT31;53633;49.932;10.884;2022-11-20T04:12:59;-0.24;88.69
66722;SHT31;53633;49.932;10.884;2022-11-20T04:15:25;-0.17;88.61
66722;SHT31;53633;49.932;10.884;2022-11-20T04:17:53;-0.09;88.27
66722;SHT31;53633;49.932;10.884;2022-11-20T04:20:20;-0.14;88.69
66722;SHT31;53633;49.932;10.884;2022-11-20T04:22:47;-0.14;88.90
66722;SHT31;53633;49.932;10.884;2022-11-20T04:25:15;-0.03;88.50
66722;SHT31;53633;49.932;10.884;2022-11-20T04:27:42;-0.06;88.77
66722;SHT31;53633;49.932;10.884;2022-11-20T04:30:09;-0.03;88.50
66722;SHT31;53633;49.932;10.884;2022-11-20T04:32:36;-0.11;89.18
66722;SHT31;53633;49.932;10.884;2022-11-20T04:35:03;-0.13;89.55
66722;SHT31;53633;49.932;10.884;2022-11-20T04:37:30;-0.20;89.41
66722;SHT31;53633;49.932;10.884;2022-11-20T04:39:57;-0.14;89.77
66722;SHT31;53633;49.932;10.884;2022-11-20T04:42:25;-0.13;89.78
66722;SHT31;53633;49.932;10.884;2022-11-20T04:44:52;-0.23;89.85
66722;SHT31;53633;49.932;10.884;2022-11-20T04:47:18;-0.20;90.20
66722;SHT31;53633;49.932;10.884;2022-11-20T04:49:45;-0.21;89.99
66722;SHT31;53633;49.932;10.884;2022-11-20T04:52:12;-0.21;90.33
66722;SHT31;53633;49.932;10.884;2022-11-20T04:54:38;-0.16;89.70
66722;SHT31;53633;49.932;10.884;2022-11-20T04:57:05;-0.24;90.13
66722;SHT31;53633;49.932;10.884;2022-11-20T04:59:41;-0.30;91.24
66722;SHT31;53633;49.932;10.884;2022-11-20T05:02:08;-0.30;90.93
66722;SHT31;53633;49.932;10.884;2022-11-20T05:04:34;-0.34;90.92
66722;SHT31;53633;49.932;10.884;2022-11-20T05:07:01;-0.23;90.28
66722;SHT31;53633;49.932;10.884;2022-11-20T05:09:28;-0.21;90.76
66722;SHT31;53633;49.932;10.884;2022-11-20T05:11:54;-0.26;91.17
66722;SHT31;53633;49.932;10.884;2022-11-20T05:14:21;-0.28;91.39
66722;SHT31;53633;49.932;10.884;2022-11-20T05:16:49;-0.27;91.65
66722;SHT31;53633;49.932;10.884;2022-11-20T05:19:16;-0.41;91.72
66722;SHT31;53633;49.932;10.884;2022-11-20T05:21:42;-0.30;90.91
66722;SHT31;53633;49.932;10.884;2022-11-20T05:24:09;-0.36;91.10
66722;SHT31;53633;49.932;10.884;2022-11-20T05:26:36;-0.31;91.55
66722;SHT31;53633;49.932;10.884;2022-11-20T05:29:03;-0.24;91.85
66722;SHT31;53633;49.932;10.884;2022-11-20T05:31:29;-0.14;90.74
66722;SHT31;53633;49.932;10.884;2022-11-20T05:33:57;-0.13;90.60
66722;SHT31;53633;49.932;10.884;2022-11-20T05:36:24;-0.09;90.41
66722;SHT31;53633;49.932;10.884;2022-11-20T05:38:51;-0.05;90.61
66722;SHT31;53633;49.932;10.884;2022-11-20T05:41:25;-0.11;90.98
66722;SHT31;53633;49.932;10.884;2022-11-20T05:43:52;-0.03;90.27
66722;SHT31;53633;49.932;10.884;2022-11-20T05:46:20;-0.06;90.59
66722;SHT31;53633;49.932;10.884;2022-11-20T05:48:54;-0.02;90.53
66722;SHT31;53633;49.932;10.884;2022-11-20T05:51:23;0.04;90.17
66722;SHT31;53633;49.932;10.884;2022-11-20T05:53:50;-0.03;90.28
66722;SHT31;53633;49.932;10.884;2022-11-20T05:56:19;-0.02;90.39
66722;SHT31;53633;49.932;10.884;2022-11-20T05:58:46;0.04;90.17
66722;SHT31;53633;49.932;10.884;2022-11-20T06:01:15;0.01;90.48
66722;SHT31;53633;49.932;10.884;2022-11-20T06:03:42;0.07;89.89
66722;SHT31;53633;49.932;10.884;2022-11-20T06:06:09;0.05;89.57
66722;SHT31;53633;49.932;10.884;2022-11-20T06:08:37;0.01;89.91
66722;SHT31;53633;49.932;10.884;2022-11-20T06:11:05;0.07;89.86
66722;SHT31;53633;49.932;10.884;2022-11-20T06:13:32;0.08;89.51
66722;SHT31;53633;49.932;10.884;2022-11-20T06:16:06;0.10;89.43
66722;SHT31;53633;49.932;10.884;2022-11-20T06:18:33;0.05;89.59
66722;SHT31;53633;49.932;10.884;2022-11-20T06:21:01;0.00;89.44
66722;SHT31;53633;49.932;10.884;2022-11-20T06:23:29;0.01;89.68
66722;SHT31;53633;49.932;10.884;2022-11-20T06:25:58;-0.02;89.70
66722;SHT31;53633;49.932;10.884;2022-11-20T06:28:27;-0.03;89.50
66722;SHT31;53633;49.932;10.884;2022-11-20T06:30:53;0.05;89.22
66722;SHT31;53633;49.932;10.884;2022-11-20T06:33:20;0.02;89.63
66722;SHT31;53633;49.932;10.884;2022-11-20T06:35:47;0.02;89.64
66722;SHT31;53633;49.932;10.884;2022-11-20T06:38:13;0.01;89.61
66722;SHT31;53633;49.932;10.884;2022-11-20T06:40:40;0.00;89.70
66722;SHT31;53633;49.932;10.884;2022-11-20T06:43:08;0.01;89.70
66722;SHT31;53633;49.932;10.884;2022-11-20T06:45:35;-0.03;89.95
66722;SHT31;53633;49.932;10.884;2022-11-20T06:48:03;-0.05;90.16
66722;SHT31;53633;49.932;10.884;2022-11-20T06:50:30;-0.09;90.36
66722;SHT31;53633;49.932;10.884;2022-11-20T06:52:56;-0.06;90.84
66722;SHT31;53633;49.932;10.884;2022-11-20T06:55:26;0.11;90.06
66722;SHT31;53633;49.932;10.884;2022-11-20T06:57:53;0.17;89.39
66722;SHT31;53633;49.932;10.884;2022-11-20T07:00:23;0.22;89.48
66722;SHT31;53633;49.932;10.884;2022-11-20T07:02:50;0.15;89.26
66722;SHT31;53633;49.932;10.884;2022-11-20T07:05:17;0.19;89.22
66722;SHT31;53633;49.932;10.884;2022-11-20T07:07:44;0.21;88.89
66722;SHT31;53633;49.932;10.884;2022-11-20T07:10:11;0.15;89.55
66722;SHT31;53633;49.932;10.884;2022-11-20T07:12:38;0.17;89.75
66722;SHT31;53633;49.932;10.884;2022-11-20T07:15:06;0.15;89.76
66722;SHT31;53633;49.932;10.884;2022-11-20T07:17:34;0.14;90.27
66722;SHT31;53633;49.932;10.884;2022-11-20T07:20:00;0.11;90.09
66722;SHT31;53633;49.932;10.884;2022-11-20T07:22:27;0.07;90.22
66722;SHT31;53633;49.932;10.884;2022-11-20T07:24:54;0.21;89.96
66722;SHT31;53633;49.932;10.884;2022-11-20T07:27:21;0.25;89.77
66722;SHT31;53633;49.932;10.884;2022-11-20T07:29:47;0.32;89.45
66722;SHT31;53633;49.932;10.884;2022-11-20T07:32:14;0.37;89.31
66722;SHT31;53633;49.932;10.884;2022-11-20T07:34:42;0.39;89.24
66722;SHT31;53633;49.932;10.884;2022-11-20T07:37:09;0.33;89.34
66722;SHT31;53633;49.932;10.884;2022-11-20T07:39:36;0.32;89.60
66722;SHT31;53633;49.932;10.884;2022-11-20T07:42:02;0.33;89.71
66722;SHT31;53633;49.932;10.884;2022-11-20T07:44:29;0.42;89.74
66722;SHT31;53633;49.932;10.884;2022-11-20T07:46:56;0.41;89.31
66722;SHT31;53633;49.932;10.884;2022-11-20T07:49:22;0.48;89.45
66722;SHT31;53633;49.932;10.884;2022-11-20T07:51:51;0.48;89.48
66722;SHT31;53633;49.932;10.884;2022-11-20T07:54:18;0.46;89.77
66722;SHT31;53633;49.932;10.884;2022-11-20T07:56:44;0.52;89.61
66722;SHT31;53633;49.932;10.884;2022-11-20T07:59:11;0.55;89.31
66722;SHT31;53633;49.932;10.884;2022-11-20T08:01:38;0.53;89.27
66722;SHT31;53633;49.932;10.884;2022-11-20T08:04:04;0.55;89.22
66722;SHT31;53633;49.932;10.884;2022-11-20T08:06:31;0.55;89.39
66722;SHT31;53633;49.932;10.884;2022-11-20T08:09:00;0.63;88.87
66722;SHT31;53633;49.932;10.884;2022-11-20T08:11:26;0.70;88.85
66722;SHT31;53633;49.932;10.884;2022-11-20T08:13:53;0.75;88.63
66722;SHT31;53633;49.932;10.884;2022-11-20T08:16:20;0.76;88.83
66722;SHT31;53633;49.932;10.884;2022-11-20T08:18:46;0.79;88.85
66722;SHT31;53633;49.932;10.884;2022-11-20T08:21:13;0.77;88.54
66722;SHT31;53633;49.932;10.884;2022-11-20T08:23:39;0.72;89.00
66722;SHT31;53633;49.932;10.884;2022-11-20T08:26:08;0.75;89.10
66722;SHT31;53633;49.932;10.884;2022-11-20T08:28:34;0.86;89.08
66722;SHT31;53633;49.932;10.884;2022-11-20T08:31:02;0.86;89.38
66722;SHT31;53633;49.932;10.884;2022-11-20T08:33:29;0.87;89.33
66722;SHT31;53633;49.932;10.884;2022-11-20T08:35:59;0.87;89.32
66722;SHT31;53633;49.932;10.884;2022-11-20T08:38:25;0.87;89.50
66722;SHT31;53633;49.932;10.884;2022-11-20T08:40:56;0.90;89.42
66722;SHT31;53633;49.932;10.884;2022-11-20T08:43:24;0.93;89.38
66722;SHT31;53633;49.932;10.884;2022-11-20T08:45:51;0.90;89.52
66722;SHT31;53633;49.932;10.884;2022-11-20T08:48:17;0.93;89.40
66722;SHT31;53633;49.932;10.884;2022-11-20T08:50:44;0.94;89.14
66722;SHT31;53633;49.932;10.884;2022-11-20T08:53:11;0.94;89.13
66722;SHT31;53633;49.932;10.884;2022-11-20T08:55:37;0.96;89.29
66722;SHT31;53633;49.932;10.884;2022-11-20T08:58:08;1.04;88.42
66722;SHT31;53633;49.932;10.884;2022-11-20T09:00:36;1.05;88.24
66722;SHT31;53633;49.932;10.884;2022-11-20T09:03:03;0.94;88.86
66722;SHT31;53633;49.932;10.884;2022-11-20T09:05:30;0.94;88.82
66722;SHT31;53633;49.932;10.884;2022-11-20T09:07:57;0.93;89.09
66722;SHT31;53633;49.932;10.884;2022-11-20T09:10:23;0.93;89.35
66722;SHT31;53633;49.932;10.884;2022-11-20T09:12:51;0.93;89.57
66722;SHT31;53633;49.932;10.884;2022-11-20T09:15:17;0.97;89.49
66722;SHT31;53633;49.932;10.884;2022-11-20T09:17:51;1.01;89.21
66722;SHT31;53633;49.932;10.884;2022-11-20T09:20:18;1.00;89.77
66722;SHT31;53633;49.932;10.884;2022-11-20T09:22:45;0.97;90.04
66722;SHT31;53633;49.932;10.884;2022-11-20T09:25:12;1.03;90.48
66722;SHT31;53633;49.932;10.884;2022-11-20T09:27:38;1.17;90.31
66722;SHT31;53633;49.932;10.884;2022-11-20T09:30:06;1.15;90.32
66722;SHT31;53633;49.932;10.884;2022-11-20T09:32:33;1.28;89.98
66722;SHT31;53633;49.932;10.884;2022-11-20T09:35:01;1.30;90.15
66722;SHT31;53633;49.932;10.884;2022-11-20T09:37:28;1.34;89.92
66722;SHT31;53633;49.932;10.884;2022-11-20T09:39:54;1.39;89.73
66722;SHT31;53633;49.932;10.884;2022-11-20T09:42:31;1.52;89.34
66722;SHT31;53633;49.932;10.884;2022-11-20T09:45:13;1.58;89.21
66722;SHT31;53633;49.932;10.884;2022-11-20T09:47:52;1.52;89.76
66722;SHT31;53633;49.932;10.884;2022-11-20T09:50:31;1.49;89.39
66722;SHT31;53633;49.932;10.884;2022-11-20T09:53:13;1.51;89.36
66722;SHT31;53633;49.932;10.884;2022-11-20T09:55:42;1.51;89.92
66722;SHT31;53633;49.932;10.884;2022-11-20T09:58:15;1.42;90.12
66722;SHT31;53633;49.932;10.884;2022-11-20T10:00:45;1.48;90.38
66722;SHT31;53633;49.932;10.884;2022-11-20T10:03:18;1.56;89.90
66722;SHT31;53633;49.932;10.884;2022-11-20T10:05:52;1.63;89.47
66722;SHT31;53633;49.932;10.884;2022-11-20T10:08:23;1.64;89.54
66722;SHT31;53633;49.932;10.884;2022-11-20T10:10:54;1.62;90.26
66722;SHT31;53633;49.932;10.884;2022-11-20T10:13:36;1.59;90.33
66722;SHT31;53633;49.932;10.884;2022-11-20T10:16:18;1.56;90.81
66722;SHT31;53633;49.932;10.884;2022-11-20T10:19:01;1.62;90.51
66722;SHT31;53633;49.932;10.884;2022-11-20T10:21:38;1.73;90.10
66722;SHT31;53633;49.932;10.884;2022-11-20T10:24:41;1.80;90.02
66722;SHT31;53633;49.932;10.884;2022-11-20T10:27:21;1.79;90.21
66722;SHT31;53633;49.932;10.884;2022-11-20T10:29:57;1.86;90.43
66722;SHT31;53633;49.932;10.884;2022-11-20T10:32:31;1.84;90.28
66722;SHT31;53633;49.932;10.884;2022-11-20T10:35:03;1.86;90.36
66722;SHT31;53633;49.932;10.884;2022-11-20T10:37:34;1.84;90.55
66722;SHT31;53633;49.932;10.884;2022-11-20T10:40:14;1.90;90.34
66722;SHT31;53633;49.932;10.884;2022-11-20T10:42:47;1.97;90.20
66722;SHT31;53633;49.932;10.884;2022-11-20T10:45:19;2.01;90.49
66722;SHT31;53633;49.932;10.884;2022-11-20T10:47:48;2.01;90.25
66722;SHT31;53633;49.932;10.884;2022-11-20T10:50:19;2.03;90.31
66722;SHT31;53633;49.932;10.884;2022-11-20T10:52:56;2.14;90.22
66722;SHT31;53633;49.932;10.884;2022-11-20T10:55:33;2.25;90.04
66722;SHT31;53633;49.932;10.884;2022-11-20T10:58:10;2.35;89.79
66722;SHT31;53633;49.932;10.884;2022-11-20T11:00:40;2.31;89.55
66722;SHT31;53633;49.932;10.884;2022-11-20T11:03:20;2.42;89.51
66722;SHT31;53633;49.932;10.884;2022-11-20T11:05:50;2.52;89.40
66722;SHT31;53633;49.932;10.884;2022-11-20T11:08:21;2.57;89.39
66722;SHT31;53633;49.932;10.884;2022-11-20T11:10:52;2.71;88.96
66722;SHT31;53633;49.932;10.884;2022-11-20T11:13:20;2.97;88.40
66722;SHT31;53633;49.932;10.884;2022-11-20T11:15:47;3.10;87.62
66722;SHT31;53633;49.932;10.884;2022-11-20T11:18:23;3.15;87.44
66722;SHT31;53633;49.932;10.884;2022-11-20T11:20:51;3.10;87.39
66722;SHT31;53633;49.932;10.884;2022-11-20T11:23:30;3.03;87.80
66722;SHT31;53633;49.932;10.884;2022-11-20T11:25:59;3.03;87.78
66722;SHT31;53633;49.932;10.884;2022-11-20T11:28:26;3.18;87.52
66722;SHT31;53633;49.932;10.884;2022-11-20T11:30:54;3.30;87.12
66722;SHT31;53633;49.932;10.884;2022-11-20T11:33:22;3.43;87.30
66722;SHT31;53633;49.932;10.884;2022-11-20T11:35:51;3.54;87.07
66722;SHT31;53633;49.932;10.884;2022-11-20T11:38:21;3.65;86.77
66722;SHT31;53633;49.932;10.884;2022-11-20T11:40:53;3.75;86.45
66722;SHT31;53633;49.932;10.884;2022-11-20T11:43:22;3.69;86.27
66722;SHT31;53633;49.932;10.884;2022-11-20T11:45:52;3.62;86.20
66722;SHT31;53633;49.932;10.884;2022-11-20T11:48:20;3.58;86.66
66722;SHT31;53633;49.932;10.884;2022-11-20T11:50:48;3.59;86.63
66722;SHT31;53633;49.932;10.884;2022-11-20T11:53:17;3.56;86.67
66722;SHT31;53633;49.932;10.884;2022-11-20T11:55:47;3.56;86.87
66722;SHT31;53633;49.932;10.884;2022-11-20T11:58:29;3.56;86.69
66722;SHT31;53633;49.932;10.884;2022-11-20T12:01:04;3.65;86.90
66722;SHT31;53633;49.932;10.884;2022-11-20T12:03:35;3.69;86.89
66722;SHT31;53633;49.932;10.884;2022-11-20T12:06:07;3.72;86.96
66722;SHT31;53633;49.932;10.884;2022-11-20T12:08:42;3.79;86.91
66722;SHT31;53633;49.932;10.884;2022-11-20T12:11:13;3.79;86.65
66722;SHT31;53633;49.932;10.884;2022-11-20T12:13:46;3.68;86.34
66722;SHT31;53633;49.932;10.884;2022-11-20T12:16:18;3.69;86.55
66722;SHT31;53633;49.932;10.884;2022-11-20T12:18:46;3.51;86.97
66722;SHT31;53633;49.932;10.884;2022-11-20T12:21:28;3.46;87.49
66722;SHT31;53633;49.932;10.884;2022-11-20T12:24:17;3.45;87.63
66722;SHT31;53633;49.932;10.884;2022-11-20T12:27:00;3.42;88.09
66722;SHT31;53633;49.932;10.884;2022-11-20T12:29:40;3.31;88.43
66722;SHT31;53633;49.932;10.884;2022-11-20T12:32:35;3.28;88.80
66722;SHT31;53633;49.932;10.884;2022-11-20T12:35:13;3.28;88.84
66722;SHT31;53633;49.932;10.884;2022-11-20T12:37:49;3.34;88.93
66722;SHT31;53633;49.932;10.884;2022-11-20T12:40:31;3.36;88.96
66722;SHT31;53633;49.932;10.884;2022-11-20T12:43:06;3.45;88.88
66722;SHT31;53633;49.932;10.884;2022-11-20T12:46:19;3.46;89.12
66722;SHT31;53633;49.932;10.884;2022-11-20T12:49:12;3.43;89.05
66722;SHT31;53633;49.932;10.884;2022-11-20T12:51:56;3.39;89.33
66722;SHT31;53633;49.932;10.884;2022-11-20T12:54:41;3.43;89.24
66722;SHT31;53633;49.932;10.884;2022-11-20T12:57:18;3.41;89.47
66722;SHT31;53633;49.932;10.884;2022-11-20T12:59:56;3.43;89.45
66722;SHT31;53633;49.932;10.884;2022-11-20T13:02:30;3.52;89.18
66722;SHT31;53633;49.932;10.884;2022-11-20T13:05:10;3.49;89.17
66722;SHT31;53633;49.932;10.884;2022-11-20T13:07:39;3.48;89.30
66722;SHT31;53633;49.932;10.884;2022-11-20T13:10:16;3.45;89.68
66722;SHT31;53633;49.932;10.884;2022-11-20T13:12:47;3.45;89.73
66722;SHT31;53633;49.932;10.884;2022-11-20T13:15:26;3.55;89.66
66722;SHT31;53633;49.932;10.884;2022-11-20T13:18:00;3.55;89.70
66722;SHT31;53633;49.932;10.884;2022-11-20T13:20:29;3.55;89.72
66722;SHT31;53633;49.932;10.884;2022-11-20T13:22:56;3.54;89.78
66722;SHT31;53633;49.932;10.884;2022-11-20T13:25:24;3.63;89.79
66722;SHT31;53633;49.932;10.884;2022-11-20T13:27:52;3.65;89.56
66722;SHT31;53633;49.932;10.884;2022-11-20T13:30:20;3.54;89.77
66722;SHT31;53633;49.932;10.884;2022-11-20T13:32:49;3.59;89.90
66722;SHT31;53633;49.932;10.884;2022-11-20T13:35:27;3.55;90.09
66722;SHT31;53633;49.932;10.884;2022-11-20T13:38:03;3.45;90.15
66722;SHT31;53633;49.932;10.884;2022-11-20T13:40:30;3.48;90.41
66722;SHT31;53633;49.932;10.884;2022-11-20T13:43:04;3.45;90.39
66722;SHT31;53633;49.932;10.884;2022-11-20T13:45:33;3.43;90.53
66722;SHT31;53633;49.932;10.884;2022-11-20T13:48:03;3.32;90.37
66722;SHT31;53633;49.932;10.884;2022-11-20T13:50:45;3.31;90.53
66722;SHT31;53633;49.932;10.884;2022-11-20T13:53:36;3.31;90.56
66722;SHT31;53633;49.932;10.884;2022-11-20T13:56:16;3.22;90.74
66722;SHT31;53633;49.932;10.884;2022-11-20T13:58:53;3.24;90.87
66722;SHT31;53633;49.932;10.884;2022-11-20T14:01:31;3.22;91.00
66722;SHT31;53633;49.932;10.884;2022-11-20T14:03:58;3.22;91.02
66722;SHT31;53633;49.932;10.884;2022-11-20T14:06:39;3.27;90.79
66722;SHT31;53633;49.932;10.884;2022-11-20T14:09:10;3.17;91.32
66722;SHT31;53633;49.932;10.884;2022-11-20T14:11:46;3.21;91.10
66722;SHT31;53633;49.932;10.884;2022-11-20T14:14:15;3.21;91.15
66722;SHT31;53633;49.932;10.884;2022-11-20T14:16:42;3.15;91.46
66722;SHT31;53633;49.932;10.884;2022-11-20T14:19:29;3.07;91.70
66722;SHT31;53633;49.932;10.884;2022-11-20T14:22:10;3.18;91.47
66722;SHT31;53633;49.932;10.884;2022-11-20T14:24:42;3.20;91.02
66722;SHT31;53633;49.932;10.884;2022-11-20T14:27:19;3.14;91.23
66722;SHT31;53633;49.932;10.884;2022-11-20T14:29:48;3.18;91.04
66722;SHT31;53633;49.932;10.884;2022-11-20T14:32:17;3.21;91.02
66722;SHT31;53633;49.932;10.884;2022-11-20T14:34:46;3.08;91.47
66722;SHT31;53633;49.932;10.884;2022-11-20T14:37:19;3.07;91.31
66722;SHT31;53633;49.932;10.884;2022-11-20T14:39:50;2.99;91.71
66722;SHT31;53633;49.932;10.884;2022-11-20T14:42:19;3.01;91.67
66722;SHT31;53633;49.932;10.884;2022-11-20T14:44:47;3.01;91.51
66722;SHT31;53633;49.932;10.884;2022-11-20T14:47:18;3.01;91.79
66722;SHT31;53633;49.932;10.884;2022-11-20T14:49:45;3.00;91.77
66722;SHT31;53633;49.932;10.884;2022-11-20T14:52:15;2.93;92.10
66722;SHT31;53633;49.932;10.884;2022-11-20T14:54:44;2.86;92.43
66722;SHT31;53633;49.932;10.884;2022-11-20T14:57:22;2.80;92.63
66722;SHT31;53633;49.932;10.884;2022-11-20T14:59:49;2.93;92.45
66722;SHT31;53633;49.932;10.884;2022-11-20T15:02:16;2.83;92.38
66722;SHT31;53633;49.932;10.884;2022-11-20T15:04:47;2.92;92.33
66722;SHT31;53633;49.932;10.884;2022-11-20T15:07:25;3.00;91.86
66722;SHT31;53633;49.932;10.884;2022-11-20T15:10:03;2.92;91.84
66722;SHT31;53633;49.932;10.884;2022-11-20T15:12:30;2.83;92.36
66722;SHT31;53633;49.932;10.884;2022-11-20T15:14:58;2.83;92.49
66722;SHT31;53633;49.932;10.884;2022-11-20T15:17:25;2.79;92.44
66722;SHT31;53633;49.932;10.884;2022-11-20T15:19:52;2.75;92.63
66722;SHT31;53633;49.932;10.884;2022-11-20T15:22:20;2.71;92.95
66722;SHT31;53633;49.932;10.884;2022-11-20T15:24:48;2.72;92.89
66722;SHT31;53633;49.932;10.884;2022-11-20T15:27:15;2.75;92.91
66722;SHT31;53633;49.932;10.884;2022-11-20T15:29:42;2.73;92.93
66722;SHT31;53633;49.932;10.884;2022-11-20T15:32:09;2.75;92.71
66722;SHT31;53633;49.932;10.884;2022-11-20T15:34:39;2.80;92.53
66722;SHT31;53633;49.932;10.884;2022-11-20T15:37:06;2.76;92.58
66722;SHT31;53633;49.932;10.884;2022-11-20T15:39:32;2.79;92.47
66722;SHT31;53633;49.932;10.884;2022-11-20T15:42:00;2.72;92.62